sensor_id;sensor_type;location;lat;lon;timestamp;P1;durP1;ratioP1;P2;durP2;ratioP2
64210;SDS011;50528;48.514;14.394;2023-02-26T00:00:07;3.40;;;2.60;;
64210;SDS011;50528;48.514;14.394;2023-02-26T00:01:13;3.20;;;2.60;;
64210;SDS011;50528;48.514;14.394;2023-02-26T00:01:50;3.30;;;2.40;;
64210;SDS011;50528;48.514;14.394;2023-02-26T00:02:23;3.70;;;2.40;;
64210;SDS011;50528;48.514;14.394;2023-02-26T00:02:57;3.40;;;2.30;;
64210;SDS011;50528;48.514;14.394;2023-02-26T00:03:31;3.40;;;2.50;;
64210;SDS011;50528;48.514;14.394;2023-02-26T00:04:05;3.60;;;2.60;;
64210;SDS011;50528;48.514;14.394;2023-02-26T00:04:41;3.10;;;2.40;;
64210;SDS011;50528;48.514;14.394;2023-02-26T00:05:15;3.30;;;2.50;;
64210;SDS011;50528;48.514;14.394;2023-02-26T00:05:49;3.30;;;2.50;;
64210;SDS011;50528;48.514;14.394;2023-02-26T00:06:23;3.60;;;2.40;;
64210;SDS011;50528;48.514;14.394;2023-02-26T00:06:59;2.90;;;2.20;;
64210;SDS011;50528;48.514;14.394;2023-02-26T00:07:37;3.60;;;2.20;;
64210;SDS011;50528;48.514;14.394;2023-02-26T00:08:11;3.70;;;2.40;;
64210;SDS011;50528;48.514;14.394;2023-02-26T00:08:45;3.60;;;2.50;;
64210;SDS011;50528;48.514;14.394;2023-02-26T00:09:18;3.30;;;2.40;;
64210;SDS011;50528;48.514;14.394;2023-02-26T00:09:52;3.60;;;2.40;;
64210;SDS011;50528;48.514;14.394;2023-02-26T00:10:26;3.40;;;2.50;;
64210;SDS011;50528;48.514;14.394;2023-02-26T00:11:04;4.00;;;2.60;;
64210;SDS011;50528;48.514;14.394;2023-02-26T00:11:39;3.70;;;2.60;;
64210;SDS011;50528;48.514;14.394;2023-02-26T00:12:13;4.00;;;2.40;;
64210;SDS011;50528;48.514;14.394;2023-02-26T00:12:47;3.20;;;2.30;;
64210;SDS011;50528;48.514;14.394;2023-02-26T00:13:21;4.80;;;2.60;;
64210;SDS011;50528;48.514;14.394;2023-02-26T00:13:55;3.20;;;2.30;;
64210;SDS011;50528;48.514;14.394;2023-02-26T00:14:29;3.60;;;2.50;;
64210;SDS011;50528;48.514;14.394;2023-02-26T00:15:03;6.90;;;2.20;;
64210;SDS011;50528;48.514;14.394;2023-02-26T00:15:37;3.50;;;2.30;;
64210;SDS011;50528;48.514;14.394;2023-02-26T00:16:25;3.30;;;2.40;;
64210;SDS011;50528;48.514;14.394;2023-02-26T00:17:21;4.40;;;2.20;;
64210;SDS011;50528;48.514;14.394;2023-02-26T00:18:08;3.00;;;2.10;;
64210;SDS011;50528;48.514;14.394;2023-02-26T00:18:45;3.10;;;2.10;;
64210;SDS011;50528;48.514;14.394;2023-02-26T00:19:18;3.70;;;2.10;;
64210;SDS011;50528;48.514;14.394;2023-02-26T00:19:52;3.20;;;2.00;;
64210;SDS011;50528;48.514;14.394;2023-02-26T00:20:26;5.40;;;2.40;;
64210;SDS011;50528;48.514;14.394;2023-02-26T00:21:00;3.30;;;2.40;;
64210;SDS011;50528;48.514;14.394;2023-02-26T00:21:34;4.10;;;2.30;;
64210;SDS011;50528;48.514;14.394;2023-02-26T00:22:08;2.90;;;2.00;;
64210;SDS011;50528;48.514;14.394;2023-02-26T00:22:42;3.10;;;2.10;;
64210;SDS011;50528;48.514;14.394;2023-02-26T00:23:16;3.50;;;2.40;;
64210;SDS011;50528;48.514;14.394;2023-02-26T00:23:50;3.00;;;2.30;;
64210;SDS011;50528;48.514;14.394;2023-02-26T00:24:25;3.10;;;2.30;;
64210;SDS011;50528;48.514;14.394;2023-02-26T00:24:58;3.40;;;2.40;;
64210;SDS011;50528;48.514;14.394;2023-02-26T00:25:32;3.10;;;2.40;;
64210;SDS011;50528;48.514;14.394;2023-02-26T00:26:05;3.10;;;2.10;;
64210;SDS011;50528;48.514;14.394;2023-02-26T00:26:39;3.50;;;2.10;;
64210;SDS011;50528;48.514;14.394;2023-02-26T00:27:12;3.90;;;2.20;;
64210;SDS011;50528;48.514;14.394;2023-02-26T00:27:46;3.40;;;2.30;;
64210;SDS011;50528;48.514;14.394;2023-02-26T00:28:20;3.10;;;2.20;;
64210;SDS011;50528;48.514;14.394;2023-02-26T00:28:54;3.30;;;2.00;;
64210;SDS011;50528;48.514;14.394;2023-02-26T00:29:28;3.30;;;2.20;;
64210;SDS011;50528;48.514;14.394;2023-02-26T00:30:03;4.20;;;2.30;;
64210;SDS011;50528;48.514;14.394;2023-02-26T00:30:39;3.20;;;2.30;;
64210;SDS011;50528;48.514;14.394;2023-02-26T00:31:13;3.70;;;2.30;;
64210;SDS011;50528;48.514;14.394;2023-02-26T00:31:48;2.80;;;2.10;;
64210;SDS011;50528;48.514;14.394;2023-02-26T00:32:22;3.10;;;2.20;;
64210;SDS011;50528;48.514;14.394;2023-02-26T00:32:56;3.80;;;2.00;;
64210;SDS011;50528;48.514;14.394;2023-02-26T00:33:30;4.10;;;2.10;;
64210;SDS011;50528;48.514;14.394;2023-02-26T00:34:04;4.90;;;2.20;;
64210;SDS011;50528;48.514;14.394;2023-02-26T00:34:38;3.30;;;2.20;;
64210;SDS011;50528;48.514;14.394;2023-02-26T00:35:14;2.90;;;2.10;;
64210;SDS011;50528;48.514;14.394;2023-02-26T00:35:50;3.50;;;2.20;;
64210;SDS011;50528;48.514;14.394;2023-02-26T00:38:10;2.80;;;2.00;;
64210;SDS011;50528;48.514;14.394;2023-02-26T00:39:33;4.70;;;2.00;;
64210;SDS011;50528;48.514;14.394;2023-02-26T00:40:55;2.70;;;2.00;;
64210;SDS011;50528;48.514;14.394;2023-02-26T00:41:29;3.90;;;2.00;;
64210;SDS011;50528;48.514;14.394;2023-02-26T00:42:03;2.60;;;1.90;;
64210;SDS011;50528;48.514;14.394;2023-02-26T00:42:37;3.00;;;2.00;;
64210;SDS011;50528;48.514;14.394;2023-02-26T00:43:17;3.30;;;2.10;;
64210;SDS011;50528;48.514;14.394;2023-02-26T00:43:55;3.10;;;1.90;;
64210;SDS011;50528;48.514;14.394;2023-02-26T00:44:29;2.90;;;2.10;;
64210;SDS011;50528;48.514;14.394;2023-02-26T00:45:02;3.00;;;2.10;;
64210;SDS011;50528;48.514;14.394;2023-02-26T00:45:37;2.80;;;2.00;;
64210;SDS011;50528;48.514;14.394;2023-02-26T00:47:11;3.20;;;2.00;;
64210;SDS011;50528;48.514;14.394;2023-02-26T00:51:01;3.00;;;1.80;;
64210;SDS011;50528;48.514;14.394;2023-02-26T00:51:55;3.20;;;2.20;;
64210;SDS011;50528;48.514;14.394;2023-02-26T00:52:35;4.00;;;1.90;;
64210;SDS011;50528;48.514;14.394;2023-02-26T00:53:56;2.70;;;1.90;;
64210;SDS011;50528;48.514;14.394;2023-02-26T00:54:36;3.30;;;2.10;;
64210;SDS011;50528;48.514;14.394;2023-02-26T00:55:09;3.10;;;1.90;;
64210;SDS011;50528;48.514;14.394;2023-02-26T00:55:43;3.10;;;2.20;;
64210;SDS011;50528;48.514;14.394;2023-02-26T00:56:16;2.80;;;1.90;;
64210;SDS011;50528;48.514;14.394;2023-02-26T00:56:51;2.70;;;1.90;;
64210;SDS011;50528;48.514;14.394;2023-02-26T00:57:26;2.70;;;2.10;;
64210;SDS011;50528;48.514;14.394;2023-02-26T00:57:59;2.70;;;1.90;;
64210;SDS011;50528;48.514;14.394;2023-02-26T00:58:34;2.80;;;1.90;;
64210;SDS011;50528;48.514;14.394;2023-02-26T00:59:08;3.00;;;2.20;;
64210;SDS011;50528;48.514;14.394;2023-02-26T00:59:41;3.10;;;2.30;;
64210;SDS011;50528;48.514;14.394;2023-02-26T01:00:15;2.60;;;1.80;;
64210;SDS011;50528;48.514;14.394;2023-02-26T01:00:49;2.50;;;1.80;;
64210;SDS011;50528;48.514;14.394;2023-02-26T01:01:22;3.00;;;2.30;;
64210;SDS011;50528;48.514;14.394;2023-02-26T01:01:56;2.90;;;2.00;;
64210;SDS011;50528;48.514;14.394;2023-02-26T01:02:29;3.30;;;1.90;;
64210;SDS011;50528;48.514;14.394;2023-02-26T01:03:04;3.20;;;2.20;;
64210;SDS011;50528;48.514;14.394;2023-02-26T01:03:37;3.60;;;2.10;;
64210;SDS011;50528;48.514;14.394;2023-02-26T01:04:12;3.30;;;1.90;;
64210;SDS011;50528;48.514;14.394;2023-02-26T01:04:47;3.30;;;1.90;;
64210;SDS011;50528;48.514;14.394;2023-02-26T01:05:21;2.90;;;2.00;;
64210;SDS011;50528;48.514;14.394;2023-02-26T01:05:55;2.60;;;2.00;;
64210;SDS011;50528;48.514;14.394;2023-02-26T01:06:29;2.80;;;2.00;;
64210;SDS011;50528;48.514;14.394;2023-02-26T01:07:07;2.80;;;2.00;;
64210;SDS011;50528;48.514;14.394;2023-02-26T01:07:54;3.10;;;2.10;;
64210;SDS011;50528;48.514;14.394;2023-02-26T01:08:41;3.00;;;1.90;;
64210;SDS011;50528;48.514;14.394;2023-02-26T01:09:26;3.10;;;1.90;;
64210;SDS011;50528;48.514;14.394;2023-02-26T01:10:03;2.90;;;2.10;;
64210;SDS011;50528;48.514;14.394;2023-02-26T01:10:41;2.70;;;1.70;;
64210;SDS011;50528;48.514;14.394;2023-02-26T01:11:15;3.00;;;2.10;;
64210;SDS011;50528;48.514;14.394;2023-02-26T01:11:48;4.60;;;2.00;;
64210;SDS011;50528;48.514;14.394;2023-02-26T01:12:22;3.30;;;2.20;;
64210;SDS011;50528;48.514;14.394;2023-02-26T01:12:56;3.10;;;1.90;;
64210;SDS011;50528;48.514;14.394;2023-02-26T01:13:30;3.40;;;2.10;;
64210;SDS011;50528;48.514;14.394;2023-02-26T01:14:03;4.50;;;2.40;;
64210;SDS011;50528;48.514;14.394;2023-02-26T01:14:38;2.70;;;1.90;;
64210;SDS011;50528;48.514;14.394;2023-02-26T01:15:14;3.10;;;2.20;;
64210;SDS011;50528;48.514;14.394;2023-02-26T01:15:52;3.90;;;2.00;;
64210;SDS011;50528;48.514;14.394;2023-02-26T01:16:33;2.70;;;2.00;;
64210;SDS011;50528;48.514;14.394;2023-02-26T01:18:11;2.80;;;1.70;;
64210;SDS011;50528;48.514;14.394;2023-02-26T01:19:23;2.70;;;1.80;;
64210;SDS011;50528;48.514;14.394;2023-02-26T01:20:15;3.10;;;1.90;;
64210;SDS011;50528;48.514;14.394;2023-02-26T01:21:02;2.60;;;1.70;;
64210;SDS011;50528;48.514;14.394;2023-02-26T01:21:39;2.90;;;1.50;;
64210;SDS011;50528;48.514;14.394;2023-02-26T01:22:30;2.90;;;1.90;;
64210;SDS011;50528;48.514;14.394;2023-02-26T01:23:14;2.60;;;1.60;;
64210;SDS011;50528;48.514;14.394;2023-02-26T01:23:50;3.10;;;1.90;;
64210;SDS011;50528;48.514;14.394;2023-02-26T01:24:25;2.40;;;1.70;;
64210;SDS011;50528;48.514;14.394;2023-02-26T01:25:07;2.90;;;2.00;;
64210;SDS011;50528;48.514;14.394;2023-02-26T01:25:47;2.80;;;1.80;;
64210;SDS011;50528;48.514;14.394;2023-02-26T01:26:25;3.00;;;1.60;;
64210;SDS011;50528;48.514;14.394;2023-02-26T01:27:00;2.40;;;1.50;;
64210;SDS011;50528;48.514;14.394;2023-02-26T01:27:35;2.90;;;1.70;;
64210;SDS011;50528;48.514;14.394;2023-02-26T01:28:11;2.60;;;1.60;;
64210;SDS011;50528;48.514;14.394;2023-02-26T01:28:45;2.60;;;1.70;;
64210;SDS011;50528;48.514;14.394;2023-02-26T01:29:18;3.10;;;1.80;;
64210;SDS011;50528;48.514;14.394;2023-02-26T01:29:52;2.60;;;1.50;;
64210;SDS011;50528;48.514;14.394;2023-02-26T01:30:29;3.30;;;1.80;;
64210;SDS011;50528;48.514;14.394;2023-02-26T01:31:04;2.40;;;1.60;;
64210;SDS011;50528;48.514;14.394;2023-02-26T01:33:43;2.30;;;1.60;;
64210;SDS011;50528;48.514;14.394;2023-02-26T01:34:35;2.60;;;1.40;;
64210;SDS011;50528;48.514;14.394;2023-02-26T01:35:25;2.40;;;1.60;;
64210;SDS011;50528;48.514;14.394;2023-02-26T01:36:08;2.40;;;1.50;;
64210;SDS011;50528;48.514;14.394;2023-02-26T01:36:50;2.60;;;1.60;;
64210;SDS011;50528;48.514;14.394;2023-02-26T01:37:40;3.20;;;1.70;;
64210;SDS011;50528;48.514;14.394;2023-02-26T01:38:41;2.00;;;1.30;;
64210;SDS011;50528;48.514;14.394;2023-02-26T01:39:27;2.60;;;1.40;;
64210;SDS011;50528;48.514;14.394;2023-02-26T01:40:22;2.10;;;1.40;;
64210;SDS011;50528;48.514;14.394;2023-02-26T01:41:05;2.40;;;1.30;;
64210;SDS011;50528;48.514;14.394;2023-02-26T01:41:45;3.20;;;1.50;;
64210;SDS011;50528;48.514;14.394;2023-02-26T01:42:24;2.40;;;1.40;;
64210;SDS011;50528;48.514;14.394;2023-02-26T01:43:04;2.30;;;1.40;;
64210;SDS011;50528;48.514;14.394;2023-02-26T01:44:55;2.50;;;1.50;;
64210;SDS011;50528;48.514;14.394;2023-02-26T01:48:16;2.70;;;1.40;;
64210;SDS011;50528;48.514;14.394;2023-02-26T01:49:01;2.40;;;1.50;;
64210;SDS011;50528;48.514;14.394;2023-02-26T01:49:36;2.30;;;1.50;;
64210;SDS011;50528;48.514;14.394;2023-02-26T01:50:12;2.10;;;1.30;;
64210;SDS011;50528;48.514;14.394;2023-02-26T01:50:50;2.80;;;1.60;;
64210;SDS011;50528;48.514;14.394;2023-02-26T01:51:42;2.40;;;1.40;;
64210;SDS011;50528;48.514;14.394;2023-02-26T01:53:22;2.10;;;1.40;;
64210;SDS011;50528;48.514;14.394;2023-02-26T01:53:57;3.00;;;1.50;;
64210;SDS011;50528;48.514;14.394;2023-02-26T01:54:32;2.30;;;1.40;;
64210;SDS011;50528;48.514;14.394;2023-02-26T01:55:08;2.20;;;1.10;;
64210;SDS011;50528;48.514;14.394;2023-02-26T01:55:42;2.50;;;1.60;;
64210;SDS011;50528;48.514;14.394;2023-02-26T01:56:18;2.30;;;1.40;;
64210;SDS011;50528;48.514;14.394;2023-02-26T01:56:55;3.00;;;1.50;;
64210;SDS011;50528;48.514;14.394;2023-02-26T01:57:41;2.30;;;1.40;;
64210;SDS011;50528;48.514;14.394;2023-02-26T01:58:15;2.40;;;1.50;;
64210;SDS011;50528;48.514;14.394;2023-02-26T01:58:50;2.20;;;1.50;;
64210;SDS011;50528;48.514;14.394;2023-02-26T01:59:23;2.30;;;1.50;;
64210;SDS011;50528;48.514;14.394;2023-02-26T01:59:57;2.50;;;1.60;;
64210;SDS011;50528;48.514;14.394;2023-02-26T02:00:31;2.60;;;1.60;;
64210;SDS011;50528;48.514;14.394;2023-02-26T02:01:04;2.80;;;1.40;;
64210;SDS011;50528;48.514;14.394;2023-02-26T02:01:38;2.60;;;1.40;;
64210;SDS011;50528;48.514;14.394;2023-02-26T02:02:13;2.20;;;1.40;;
64210;SDS011;50528;48.514;14.394;2023-02-26T02:02:50;2.60;;;1.50;;
64210;SDS011;50528;48.514;14.394;2023-02-26T02:03:25;2.10;;;1.40;;
64210;SDS011;50528;48.514;14.394;2023-02-26T02:04:03;1.90;;;1.30;;
64210;SDS011;50528;48.514;14.394;2023-02-26T02:04:39;2.20;;;1.40;;
64210;SDS011;50528;48.514;14.394;2023-02-26T02:05:16;2.30;;;1.50;;
64210;SDS011;50528;48.514;14.394;2023-02-26T02:06:37;2.50;;;1.50;;
64210;SDS011;50528;48.514;14.394;2023-02-26T02:06:56;2.30;;;1.40;;
64210;SDS011;50528;48.514;14.394;2023-02-26T02:07:30;2.20;;;1.30;;
64210;SDS011;50528;48.514;14.394;2023-02-26T02:08:04;2.10;;;1.50;;
64210;SDS011;50528;48.514;14.394;2023-02-26T02:08:37;2.60;;;1.40;;
64210;SDS011;50528;48.514;14.394;2023-02-26T02:09:11;2.40;;;1.60;;
64210;SDS011;50528;48.514;14.394;2023-02-26T02:09:45;2.60;;;1.50;;
64210;SDS011;50528;48.514;14.394;2023-02-26T02:10:19;2.70;;;1.50;;
64210;SDS011;50528;48.514;14.394;2023-02-26T02:10:53;2.30;;;1.60;;
64210;SDS011;50528;48.514;14.394;2023-02-26T02:11:27;2.70;;;1.30;;
64210;SDS011;50528;48.514;14.394;2023-02-26T02:14:40;2.60;;;1.40;;
64210;SDS011;50528;48.514;14.394;2023-02-26T02:15:53;2.40;;;1.70;;
64210;SDS011;50528;48.514;14.394;2023-02-26T02:18:30;3.30;;;1.40;;
64210;SDS011;50528;48.514;14.394;2023-02-26T02:20:28;2.80;;;1.80;;
64210;SDS011;50528;48.514;14.394;2023-02-26T02:29:45;2.90;;;2.00;;
64210;SDS011;50528;48.514;14.394;2023-02-26T02:31:43;3.30;;;1.90;;
64210;SDS011;50528;48.514;14.394;2023-02-26T02:33:46;3.00;;;2.10;;
64210;SDS011;50528;48.514;14.394;2023-02-26T02:35:17;3.00;;;1.90;;
64210;SDS011;50528;48.514;14.394;2023-02-26T02:35:58;2.70;;;1.90;;
64210;SDS011;50528;48.514;14.394;2023-02-26T02:37:31;2.90;;;2.10;;
64210;SDS011;50528;48.514;14.394;2023-02-26T02:39:08;3.00;;;2.10;;
64210;SDS011;50528;48.514;14.394;2023-02-26T02:40:33;2.60;;;2.00;;
64210;SDS011;50528;48.514;14.394;2023-02-26T02:41:21;2.90;;;2.00;;
64210;SDS011;50528;48.514;14.394;2023-02-26T02:42:15;2.90;;;2.20;;
64210;SDS011;50528;48.514;14.394;2023-02-26T02:43:49;3.10;;;2.20;;
64210;SDS011;50528;48.514;14.394;2023-02-26T02:44:25;3.00;;;2.20;;
64210;SDS011;50528;48.514;14.394;2023-02-26T02:45:02;3.40;;;2.40;;
64210;SDS011;50528;48.514;14.394;2023-02-26T02:46:00;2.70;;;2.10;;
64210;SDS011;50528;48.514;14.394;2023-02-26T02:46:38;2.50;;;1.90;;
64210;SDS011;50528;48.514;14.394;2023-02-26T02:47:17;2.80;;;2.10;;
64210;SDS011;50528;48.514;14.394;2023-02-26T02:47:56;3.00;;;2.40;;
64210;SDS011;50528;48.514;14.394;2023-02-26T02:48:42;2.80;;;2.30;;
64210;SDS011;50528;48.514;14.394;2023-02-26T02:51:29;3.20;;;2.20;;
64210;SDS011;50528;48.514;14.394;2023-02-26T02:52:14;2.80;;;2.10;;
64210;SDS011;50528;48.514;14.394;2023-02-26T02:53:18;3.10;;;2.10;;
64210;SDS011;50528;48.514;14.394;2023-02-26T02:54:53;2.60;;;1.90;;
64210;SDS011;50528;48.514;14.394;2023-02-26T02:55:33;2.80;;;2.10;;
64210;SDS011;50528;48.514;14.394;2023-02-26T02:57:22;2.70;;;1.90;;
64210;SDS011;50528;48.514;14.394;2023-02-26T02:58:02;3.10;;;2.10;;
64210;SDS011;50528;48.514;14.394;2023-02-26T02:58:45;2.70;;;2.10;;
64210;SDS011;50528;48.514;14.394;2023-02-26T02:59:25;4.10;;;2.20;;
64210;SDS011;50528;48.514;14.394;2023-02-26T03:00:06;3.40;;;2.30;;
64210;SDS011;50528;48.514;14.394;2023-02-26T03:00:45;3.00;;;2.20;;
64210;SDS011;50528;48.514;14.394;2023-02-26T03:01:22;3.40;;;2.50;;
64210;SDS011;50528;48.514;14.394;2023-02-26T03:02:07;3.00;;;2.20;;
64210;SDS011;50528;48.514;14.394;2023-02-26T03:03:10;4.60;;;2.40;;
64210;SDS011;50528;48.514;14.394;2023-02-26T03:03:57;3.20;;;2.40;;
64210;SDS011;50528;48.514;14.394;2023-02-26T03:04:41;3.20;;;2.20;;
64210;SDS011;50528;48.514;14.394;2023-02-26T03:05:15;3.70;;;2.20;;
64210;SDS011;50528;48.514;14.394;2023-02-26T03:05:49;3.20;;;2.30;;
64210;SDS011;50528;48.514;14.394;2023-02-26T03:06:24;4.60;;;2.90;;
64210;SDS011;50528;48.514;14.394;2023-02-26T03:06:58;3.40;;;2.60;;
64210;SDS011;50528;48.514;14.394;2023-02-26T03:07:32;3.50;;;2.30;;
64210;SDS011;50528;48.514;14.394;2023-02-26T03:08:11;3.60;;;2.20;;
64210;SDS011;50528;48.514;14.394;2023-02-26T03:08:51;3.10;;;2.40;;
64210;SDS011;50528;48.514;14.394;2023-02-26T03:09:25;3.90;;;2.50;;
64210;SDS011;50528;48.514;14.394;2023-02-26T03:09:59;3.60;;;2.60;;
64210;SDS011;50528;48.514;14.394;2023-02-26T03:10:32;3.10;;;2.30;;
64210;SDS011;50528;48.514;14.394;2023-02-26T03:11:07;2.80;;;2.30;;
64210;SDS011;50528;48.514;14.394;2023-02-26T03:11:41;3.00;;;2.40;;
64210;SDS011;50528;48.514;14.394;2023-02-26T03:12:15;3.30;;;2.50;;
64210;SDS011;50528;48.514;14.394;2023-02-26T03:12:49;3.40;;;2.30;;
64210;SDS011;50528;48.514;14.394;2023-02-26T03:13:23;3.60;;;2.60;;
64210;SDS011;50528;48.514;14.394;2023-02-26T03:14:08;2.90;;;2.20;;
64210;SDS011;50528;48.514;14.394;2023-02-26T03:14:43;3.10;;;2.10;;
64210;SDS011;50528;48.514;14.394;2023-02-26T03:15:17;3.40;;;2.20;;
64210;SDS011;50528;48.514;14.394;2023-02-26T03:20:35;3.10;;;2.10;;
64210;SDS011;50528;48.514;14.394;2023-02-26T03:22:12;3.00;;;2.20;;
64210;SDS011;50528;48.514;14.394;2023-02-26T03:23:19;3.10;;;2.00;;
64210;SDS011;50528;48.514;14.394;2023-02-26T03:25:26;3.20;;;2.20;;
64210;SDS011;50528;48.514;14.394;2023-02-26T03:26:23;2.80;;;2.20;;
64210;SDS011;50528;48.514;14.394;2023-02-26T03:27:07;2.90;;;2.20;;
64210;SDS011;50528;48.514;14.394;2023-02-26T03:28:07;2.90;;;2.10;;
64210;SDS011;50528;48.514;14.394;2023-02-26T03:28:51;3.20;;;2.20;;
64210;SDS011;50528;48.514;14.394;2023-02-26T03:30:57;3.50;;;2.50;;
64210;SDS011;50528;48.514;14.394;2023-02-26T03:33:09;3.10;;;2.10;;
64210;SDS011;50528;48.514;14.394;2023-02-26T03:34:52;3.10;;;2.20;;
64210;SDS011;50528;48.514;14.394;2023-02-26T03:36:59;3.10;;;2.40;;
64210;SDS011;50528;48.514;14.394;2023-02-26T03:37:39;3.70;;;2.40;;
64210;SDS011;50528;48.514;14.394;2023-02-26T03:38:15;3.00;;;2.20;;
64210;SDS011;50528;48.514;14.394;2023-02-26T03:38:58;3.70;;;2.20;;
64210;SDS011;50528;48.514;14.394;2023-02-26T03:40:01;3.70;;;2.00;;
64210;SDS011;50528;48.514;14.394;2023-02-26T03:40:42;3.20;;;2.40;;
64210;SDS011;50528;48.514;14.394;2023-02-26T03:41:26;2.60;;;2.00;;
64210;SDS011;50528;48.514;14.394;2023-02-26T03:42:58;3.50;;;2.50;;
64210;SDS011;50528;48.514;14.394;2023-02-26T03:44:53;4.40;;;2.20;;
64210;SDS011;50528;48.514;14.394;2023-02-26T03:45:30;2.80;;;2.30;;
64210;SDS011;50528;48.514;14.394;2023-02-26T03:46:08;3.30;;;2.60;;
64210;SDS011;50528;48.514;14.394;2023-02-26T03:46:49;3.50;;;2.50;;
64210;SDS011;50528;48.514;14.394;2023-02-26T03:47:28;3.50;;;2.50;;
64210;SDS011;50528;48.514;14.394;2023-02-26T03:48:04;4.10;;;2.60;;
64210;SDS011;50528;48.514;14.394;2023-02-26T03:48:42;3.50;;;2.50;;
64210;SDS011;50528;48.514;14.394;2023-02-26T03:49:28;3.20;;;2.30;;
64210;SDS011;50528;48.514;14.394;2023-02-26T03:50:16;3.50;;;2.40;;
64210;SDS011;50528;48.514;14.394;2023-02-26T03:50:57;3.20;;;2.40;;
64210;SDS011;50528;48.514;14.394;2023-02-26T03:52:08;2.90;;;2.20;;
64210;SDS011;50528;48.514;14.394;2023-02-26T03:52:54;2.80;;;2.20;;
64210;SDS011;50528;48.514;14.394;2023-02-26T03:53:54;2.80;;;2.30;;
64210;SDS011;50528;48.514;14.394;2023-02-26T03:54:41;4.10;;;2.30;;
64210;SDS011;50528;48.514;14.394;2023-02-26T03:55:45;3.40;;;2.40;;
64210;SDS011;50528;48.514;14.394;2023-02-26T03:56:36;2.90;;;2.10;;
64210;SDS011;50528;48.514;14.394;2023-02-26T03:57:12;2.80;;;2.10;;
64210;SDS011;50528;48.514;14.394;2023-02-26T03:58:22;3.00;;;2.10;;
64210;SDS011;50528;48.514;14.394;2023-02-26T03:59:14;3.30;;;2.50;;
64210;SDS011;50528;48.514;14.394;2023-02-26T03:59:49;3.10;;;2.20;;
64210;SDS011;50528;48.514;14.394;2023-02-26T04:00:46;3.30;;;2.30;;
64210;SDS011;50528;48.514;14.394;2023-02-26T04:01:27;3.20;;;2.40;;
64210;SDS011;50528;48.514;14.394;2023-02-26T04:02:19;4.00;;;2.60;;
64210;SDS011;50528;48.514;14.394;2023-02-26T04:03:04;3.00;;;2.10;;
64210;SDS011;50528;48.514;14.394;2023-02-26T04:03:56;3.70;;;2.50;;
64210;SDS011;50528;48.514;14.394;2023-02-26T04:04:40;3.50;;;2.60;;
64210;SDS011;50528;48.514;14.394;2023-02-26T04:05:20;4.00;;;2.40;;
64210;SDS011;50528;48.514;14.394;2023-02-26T04:05:58;3.40;;;2.30;;
64210;SDS011;50528;48.514;14.394;2023-02-26T04:06:33;3.20;;;2.50;;
64210;SDS011;50528;48.514;14.394;2023-02-26T04:07:08;4.00;;;2.70;;
64210;SDS011;50528;48.514;14.394;2023-02-26T04:07:44;3.90;;;2.50;;
64210;SDS011;50528;48.514;14.394;2023-02-26T04:08:21;3.20;;;2.60;;
64210;SDS011;50528;48.514;14.394;2023-02-26T04:08:56;4.10;;;3.00;;
64210;SDS011;50528;48.514;14.394;2023-02-26T04:09:30;3.30;;;2.40;;
64210;SDS011;50528;48.514;14.394;2023-02-26T04:10:03;3.40;;;2.10;;
64210;SDS011;50528;48.514;14.394;2023-02-26T04:10:45;3.50;;;2.50;;
64210;SDS011;50528;48.514;14.394;2023-02-26T04:11:25;3.20;;;2.60;;
64210;SDS011;50528;48.514;14.394;2023-02-26T04:11:59;4.20;;;2.80;;
64210;SDS011;50528;48.514;14.394;2023-02-26T04:12:34;3.20;;;2.60;;
64210;SDS011;50528;48.514;14.394;2023-02-26T04:13:08;3.70;;;2.90;;
64210;SDS011;50528;48.514;14.394;2023-02-26T04:13:42;3.60;;;2.70;;
64210;SDS011;50528;48.514;14.394;2023-02-26T04:14:16;3.30;;;2.30;;
64210;SDS011;50528;48.514;14.394;2023-02-26T04:14:50;3.40;;;2.60;;
64210;SDS011;50528;48.514;14.394;2023-02-26T04:15:24;3.20;;;2.50;;
64210;SDS011;50528;48.514;14.394;2023-02-26T04:15:57;3.00;;;2.40;;
64210;SDS011;50528;48.514;14.394;2023-02-26T04:16:31;3.50;;;2.70;;
64210;SDS011;50528;48.514;14.394;2023-02-26T04:17:05;3.80;;;2.30;;
64210;SDS011;50528;48.514;14.394;2023-02-26T04:17:38;4.20;;;2.50;;
64210;SDS011;50528;48.514;14.394;2023-02-26T04:18:12;2.90;;;2.30;;
64210;SDS011;50528;48.514;14.394;2023-02-26T04:18:45;3.60;;;2.60;;
64210;SDS011;50528;48.514;14.394;2023-02-26T04:19:20;2.80;;;2.30;;
64210;SDS011;50528;48.514;14.394;2023-02-26T04:19:53;3.00;;;2.30;;
64210;SDS011;50528;48.514;14.394;2023-02-26T04:20:27;3.10;;;2.30;;
64210;SDS011;50528;48.514;14.394;2023-02-26T04:21:01;2.90;;;2.30;;
64210;SDS011;50528;48.514;14.394;2023-02-26T04:21:35;3.60;;;2.70;;
64210;SDS011;50528;48.514;14.394;2023-02-26T04:22:09;3.20;;;2.60;;
64210;SDS011;50528;48.514;14.394;2023-02-26T04:22:43;3.20;;;2.20;;
64210;SDS011;50528;48.514;14.394;2023-02-26T04:23:17;3.60;;;2.50;;
64210;SDS011;50528;48.514;14.394;2023-02-26T04:23:51;3.20;;;2.30;;
64210;SDS011;50528;48.514;14.394;2023-02-26T04:24:25;3.20;;;2.70;;
64210;SDS011;50528;48.514;14.394;2023-02-26T04:25:00;3.30;;;2.60;;
64210;SDS011;50528;48.514;14.394;2023-02-26T04:25:33;3.10;;;2.50;;
64210;SDS011;50528;48.514;14.394;2023-02-26T04:26:07;3.30;;;2.50;;
64210;SDS011;50528;48.514;14.394;2023-02-26T04:26:42;3.10;;;2.40;;
64210;SDS011;50528;48.514;14.394;2023-02-26T04:27:16;3.10;;;2.40;;
64210;SDS011;50528;48.514;14.394;2023-02-26T04:27:49;2.80;;;2.30;;
64210;SDS011;50528;48.514;14.394;2023-02-26T04:28:23;3.00;;;2.40;;
64210;SDS011;50528;48.514;14.394;2023-02-26T04:28:56;3.20;;;2.70;;
64210;SDS011;50528;48.514;14.394;2023-02-26T04:29:31;3.30;;;2.60;;
64210;SDS011;50528;48.514;14.394;2023-02-26T04:30:05;3.40;;;2.50;;
64210;SDS011;50528;48.514;14.394;2023-02-26T04:30:42;2.80;;;2.10;;
64210;SDS011;50528;48.514;14.394;2023-02-26T04:31:17;3.10;;;2.70;;
64210;SDS011;50528;48.514;14.394;2023-02-26T04:31:50;3.10;;;2.50;;
64210;SDS011;50528;48.514;14.394;2023-02-26T04:32:24;3.10;;;2.70;;
64210;SDS011;50528;48.514;14.394;2023-02-26T04:32:58;3.00;;;2.60;;
64210;SDS011;50528;48.514;14.394;2023-02-26T04:33:32;3.00;;;2.60;;
64210;SDS011;50528;48.514;14.394;2023-02-26T04:34:06;3.20;;;2.50;;
64210;SDS011;50528;48.514;14.394;2023-02-26T04:34:39;3.40;;;2.80;;
64210;SDS011;50528;48.514;14.394;2023-02-26T04:35:13;3.30;;;2.60;;
64210;SDS011;50528;48.514;14.394;2023-02-26T04:35:46;3.70;;;2.80;;
64210;SDS011;50528;48.514;14.394;2023-02-26T04:36:21;3.50;;;2.80;;
64210;SDS011;50528;48.514;14.394;2023-02-26T04:36:56;2.90;;;2.50;;
64210;SDS011;50528;48.514;14.394;2023-02-26T04:37:30;3.30;;;2.50;;
64210;SDS011;50528;48.514;14.394;2023-02-26T04:38:03;3.80;;;2.70;;
64210;SDS011;50528;48.514;14.394;2023-02-26T04:38:37;3.00;;;2.40;;
64210;SDS011;50528;48.514;14.394;2023-02-26T04:39:11;3.40;;;2.30;;
64210;SDS011;50528;48.514;14.394;2023-02-26T04:39:45;3.30;;;2.50;;
64210;SDS011;50528;48.514;14.394;2023-02-26T04:40:19;3.30;;;2.70;;
64210;SDS011;50528;48.514;14.394;2023-02-26T04:40:52;3.20;;;2.40;;
64210;SDS011;50528;48.514;14.394;2023-02-26T04:41:26;3.90;;;2.40;;
64210;SDS011;50528;48.514;14.394;2023-02-26T04:42:00;3.40;;;2.70;;
64210;SDS011;50528;48.514;14.394;2023-02-26T04:42:33;3.00;;;2.40;;
64210;SDS011;50528;48.514;14.394;2023-02-26T04:43:07;3.20;;;2.70;;
64210;SDS011;50528;48.514;14.394;2023-02-26T04:43:45;3.40;;;2.60;;
64210;SDS011;50528;48.514;14.394;2023-02-26T04:44:25;3.50;;;2.60;;